sensor_id;sensor_type;location;lat;lon;timestamp;P1;durP1;ratioP1;P2;durP2;ratioP2
76256;SDS011;65074;50.436;8.672;2023-07-31T00:01:17;2.55;;;1.15;;
76256;SDS011;65074;50.436;8.672;2023-07-31T00:03:42;2.93;;;1.30;;
76256;SDS011;65074;50.436;8.672;2023-07-31T00:06:07;2.10;;;1.37;;
76256;SDS011;65074;50.436;8.672;2023-07-31T00:08:32;2.53;;;1.33;;
76256;SDS011;65074;50.436;8.672;2023-07-31T00:10:58;4.28;;;1.48;;
76256;SDS011;65074;50.436;8.672;2023-07-31T00:13:23;1.60;;;1.07;;
76256;SDS011;65074;50.436;8.672;2023-07-31T00:15:48;2.03;;;1.00;;
76256;SDS011;65074;50.436;8.672;2023-07-31T00:18:13;3.30;;;1.20;;
76256;SDS011;65074;50.436;8.672;2023-07-31T00:20:39;1.88;;;1.20;;
76256;SDS011;65074;50.436;8.672;2023-07-31T00:23:04;2.57;;;1.30;;
76256;SDS011;65074;50.436;8.672;2023-07-31T00:25:29;4.03;;;1.37;;
76256;SDS011;65074;50.436;8.672;2023-07-31T00:27:54;3.10;;;1.20;;
76256;SDS011;65074;50.436;8.672;2023-07-31T00:30:20;3.83;;;1.60;;
76256;SDS011;65074;50.436;8.672;2023-07-31T00:32:45;3.88;;;1.20;;
76256;SDS011;65074;50.436;8.672;2023-07-31T00:35:10;3.20;;;1.50;;
76256;SDS011;65074;50.436;8.672;2023-07-31T00:37:35;4.27;;;1.50;;
76256;SDS011;65074;50.436;8.672;2023-07-31T00:40:01;3.07;;;1.30;;
76256;SDS011;65074;50.436;8.672;2023-07-31T00:42:28;4.85;;;1.75;;
76256;SDS011;65074;50.436;8.672;2023-07-31T00:44:54;6.57;;;1.50;;
76256;SDS011;65074;50.436;8.672;2023-07-31T00:47:20;3.67;;;1.20;;
76256;SDS011;65074;50.436;8.672;2023-07-31T00:49:45;3.43;;;1.47;;
76256;SDS011;65074;50.436;8.672;2023-07-31T00:52:10;1.92;;;1.30;;
76256;SDS011;65074;50.436;8.672;2023-07-31T00:54:36;3.55;;;1.50;;
76256;SDS011;65074;50.436;8.672;2023-07-31T00:57:01;3.08;;;1.60;;
76256;SDS011;65074;50.436;8.672;2023-07-31T00:59:27;4.63;;;1.30;;
76256;SDS011;65074;50.436;8.672;2023-07-31T01:01:52;2.03;;;1.30;;
76256;SDS011;65074;50.436;8.672;2023-07-31T01:04:18;3.80;;;1.40;;
76256;SDS011;65074;50.436;8.672;2023-07-31T01:06:44;4.90;;;1.48;;
76256;SDS011;65074;50.436;8.672;2023-07-31T01:09:17;2.33;;;1.60;;
76256;SDS011;65074;50.436;8.672;2023-07-31T01:12:03;6.65;;;1.40;;
76256;SDS011;65074;50.436;8.672;2023-07-31T01:14:28;3.38;;;1.20;;
76256;SDS011;65074;50.436;8.672;2023-07-31T01:16:54;2.63;;;1.40;;
76256;SDS011;65074;50.436;8.672;2023-07-31T01:19:21;4.43;;;1.40;;
76256;SDS011;65074;50.436;8.672;2023-07-31T01:21:56;3.65;;;1.52;;
76256;SDS011;65074;50.436;8.672;2023-07-31T01:27:14;3.50;;;1.10;;
76256;SDS011;65074;50.436;8.672;2023-07-31T01:29:47;2.10;;;1.38;;
76256;SDS011;65074;50.436;8.672;2023-07-31T01:32:14;3.55;;;1.63;;
76256;SDS011;65074;50.436;8.672;2023-07-31T01:34:41;3.83;;;1.10;;
76256;SDS011;65074;50.436;8.672;2023-07-31T01:37:06;2.95;;;1.27;;
76256;SDS011;65074;50.436;8.672;2023-07-31T01:39:31;2.37;;;1.37;;
76256;SDS011;65074;50.436;8.672;2023-07-31T01:41:57;3.43;;;1.50;;
76256;SDS011;65074;50.436;8.672;2023-07-31T01:44:22;2.83;;;1.50;;
76256;SDS011;65074;50.436;8.672;2023-07-31T01:46:47;2.92;;;1.30;;
76256;SDS011;65074;50.436;8.672;2023-07-31T01:49:13;4.20;;;1.65;;
76256;SDS011;65074;50.436;8.672;2023-07-31T01:51:38;1.97;;;1.40;;
76256;SDS011;65074;50.436;8.672;2023-07-31T01:54:03;2.50;;;1.23;;
76256;SDS011;65074;50.436;8.672;2023-07-31T01:56:29;7.03;;;1.60;;
76256;SDS011;65074;50.436;8.672;2023-07-31T01:58:54;4.23;;;1.80;;
76256;SDS011;65074;50.436;8.672;2023-07-31T02:01:19;2.45;;;1.40;;
76256;SDS011;65074;50.436;8.672;2023-07-31T02:03:45;4.43;;;1.50;;
76256;SDS011;65074;50.436;8.672;2023-07-31T02:06:10;3.45;;;1.25;;
76256;SDS011;65074;50.436;8.672;2023-07-31T02:08:35;3.65;;;1.38;;
76256;SDS011;65074;50.436;8.672;2023-07-31T02:11:01;3.65;;;1.48;;
76256;SDS011;65074;50.436;8.672;2023-07-31T02:13:26;3.67;;;1.50;;
76256;SDS011;65074;50.436;8.672;2023-07-31T02:15:51;3.43;;;1.70;;
76256;SDS011;65074;50.436;8.672;2023-07-31T02:18:16;3.57;;;1.50;;
76256;SDS011;65074;50.436;8.672;2023-07-31T02:20:42;2.97;;;1.50;;
76256;SDS011;65074;50.436;8.672;2023-07-31T02:23:07;3.17;;;1.45;;
76256;SDS011;65074;50.436;8.672;2023-07-31T02:25:32;2.47;;;1.20;;
76256;SDS011;65074;50.436;8.672;2023-07-31T02:27:58;3.10;;;1.73;;
76256;SDS011;65074;50.436;8.672;2023-07-31T02:30:23;4.13;;;1.37;;
76256;SDS011;65074;50.436;8.672;2023-07-31T02:32:49;3.28;;;1.38;;
76256;SDS011;65074;50.436;8.672;2023-07-31T02:35:15;6.18;;;1.60;;
76256;SDS011;65074;50.436;8.672;2023-07-31T02:37:40;2.92;;;1.50;;
76256;SDS011;65074;50.436;8.672;2023-07-31T02:40:06;3.50;;;1.90;;
76256;SDS011;65074;50.436;8.672;2023-07-31T02:42:31;2.88;;;1.25;;
76256;SDS011;65074;50.436;8.672;2023-07-31T02:44:56;2.47;;;1.50;;
76256;SDS011;65074;50.436;8.672;2023-07-31T02:47:22;5.57;;;1.70;;
76256;SDS011;65074;50.436;8.672;2023-07-31T02:49:47;4.82;;;1.45;;
76256;SDS011;65074;50.436;8.672;2023-07-31T02:52:13;3.17;;;1.50;;
76256;SDS011;65074;50.436;8.672;2023-07-31T02:54:38;3.03;;;1.40;;
76256;SDS011;65074;50.436;8.672;2023-07-31T02:57:03;4.80;;;1.90;;
76256;SDS011;65074;50.436;8.672;2023-07-31T02:59:29;3.83;;;1.60;;
76256;SDS011;65074;50.436;8.672;2023-07-31T03:01:54;5.07;;;1.83;;
76256;SDS011;65074;50.436;8.672;2023-07-31T03:04:19;4.40;;;1.77;;
76256;SDS011;65074;50.436;8.672;2023-07-31T03:06:45;3.97;;;1.73;;
76256;SDS011;65074;50.436;8.672;2023-07-31T03:09:10;6.17;;;1.80;;
76256;SDS011;65074;50.436;8.672;2023-07-31T03:11:35;3.67;;;1.47;;
76256;SDS011;65074;50.436;8.672;2023-07-31T03:14:00;2.57;;;1.13;;
76256;SDS011;65074;50.436;8.672;2023-07-31T03:16:26;2.93;;;1.37;;
76256;SDS011;65074;50.436;8.672;2023-07-31T03:18:51;3.43;;;1.53;;
76256;SDS011;65074;50.436;8.672;2023-07-31T03:21:16;2.70;;;1.33;;
76256;SDS011;65074;50.436;8.672;2023-07-31T03:23:41;2.07;;;1.47;;
76256;SDS011;65074;50.436;8.672;2023-07-31T03:26:08;4.05;;;1.70;;
76256;SDS011;65074;50.436;8.672;2023-07-31T03:28:34;3.63;;;1.75;;
76256;SDS011;65074;50.436;8.672;2023-07-31T03:30:59;2.78;;;1.48;;
76256;SDS011;65074;50.436;8.672;2023-07-31T03:33:25;3.60;;;1.50;;
76256;SDS011;65074;50.436;8.672;2023-07-31T03:35:50;5.13;;;1.60;;
76256;SDS011;65074;50.436;8.672;2023-07-31T03:38:15;3.00;;;1.50;;
76256;SDS011;65074;50.436;8.672;2023-07-31T03:40:42;5.55;;;2.00;;
76256;SDS011;65074;50.436;8.672;2023-07-31T03:43:08;3.90;;;1.73;;
76256;SDS011;65074;50.436;8.672;2023-07-31T03:45:33;3.90;;;1.73;;
76256;SDS011;65074;50.436;8.672;2023-07-31T03:47:58;4.53;;;1.60;;
76256;SDS011;65074;50.436;8.672;2023-07-31T03:50:25;2.90;;;1.80;;
76256;SDS011;65074;50.436;8.672;2023-07-31T03:52:50;2.63;;;1.30;;
76256;SDS011;65074;50.436;8.672;2023-07-31T03:55:15;3.53;;;2.13;;
76256;SDS011;65074;50.436;8.672;2023-07-31T03:57:40;2.85;;;1.42;;
76256;SDS011;65074;50.436;8.672;2023-07-31T04:00:06;3.75;;;1.70;;
76256;SDS011;65074;50.436;8.672;2023-07-31T04:02:37;3.05;;;1.92;;
76256;SDS011;65074;50.436;8.672;2023-07-31T04:05:02;3.03;;;1.70;;
76256;SDS011;65074;50.436;8.672;2023-07-31T04:07:28;4.80;;;1.60;;
76256;SDS011;65074;50.436;8.672;2023-07-31T04:09:53;3.97;;;1.87;;
76256;SDS011;65074;50.436;8.672;2023-07-31T04:12:18;2.47;;;1.40;;
76256;SDS011;65074;50.436;8.672;2023-07-31T04:14:44;5.20;;;1.70;;
76256;SDS011;65074;50.436;8.672;2023-07-31T04:17:09;3.23;;;1.40;;
76256;SDS011;65074;50.436;8.672;2023-07-31T04:19:34;2.30;;;1.53;;
76256;SDS011;65074;50.436;8.672;2023-07-31T04:21:59;2.78;;;1.50;;
76256;SDS011;65074;50.436;8.672;2023-07-31T04:24:25;2.20;;;1.63;;
76256;SDS011;65074;50.436;8.672;2023-07-31T04:26:50;3.83;;;1.50;;
76256;SDS011;65074;50.436;8.672;2023-07-31T04:29:16;4.97;;;1.40;;
76256;SDS011;65074;50.436;8.672;2023-07-31T04:31:41;3.67;;;1.45;;
76256;SDS011;65074;50.436;8.672;2023-07-31T04:34:07;2.67;;;1.50;;
76256;SDS011;65074;50.436;8.672;2023-07-31T04:36:33;4.05;;;1.75;;
76256;SDS011;65074;50.436;8.672;2023-07-31T04:38:58;3.20;;;1.63;;
76256;SDS011;65074;50.436;8.672;2023-07-31T04:41:23;1.57;;;1.20;;
76256;SDS011;65074;50.436;8.672;2023-07-31T04:43:48;2.17;;;1.43;;
76256;SDS011;65074;50.436;8.672;2023-07-31T04:46:13;2.87;;;1.70;;
76256;SDS011;65074;50.436;8.672;2023-07-31T04:48:39;2.87;;;1.60;;
76256;SDS011;65074;50.436;8.672;2023-07-31T04:51:04;3.90;;;1.53;;
76256;SDS011;65074;50.436;8.672;2023-07-31T04:53:29;4.10;;;2.00;;
76256;SDS011;65074;50.436;8.672;2023-07-31T04:55:54;3.13;;;1.73;;
76256;SDS011;65074;50.436;8.672;2023-07-31T04:58:20;2.90;;;1.90;;
76256;SDS011;65074;50.436;8.672;2023-07-31T05:00:45;3.77;;;2.00;;
76256;SDS011;65074;50.436;8.672;2023-07-31T05:03:10;4.65;;;1.50;;
76256;SDS011;65074;50.436;8.672;2023-07-31T05:05:36;3.38;;;1.38;;
76256;SDS011;65074;50.436;8.672;2023-07-31T05:08:01;3.28;;;1.58;;
76256;SDS011;65074;50.436;8.672;2023-07-31T05:10:27;2.27;;;1.60;;
76256;SDS011;65074;50.436;8.672;2023-07-31T05:12:52;2.03;;;1.20;;
76256;SDS011;65074;50.436;8.672;2023-07-31T05:15:17;3.80;;;1.40;;
76256;SDS011;65074;50.436;8.672;2023-07-31T05:17:42;2.10;;;1.23;;
76256;SDS011;65074;50.436;8.672;2023-07-31T05:20:08;3.95;;;1.58;;
76256;SDS011;65074;50.436;8.672;2023-07-31T05:22:34;2.75;;;1.33;;
76256;SDS011;65074;50.436;8.672;2023-07-31T05:24:59;2.90;;;1.53;;
76256;SDS011;65074;50.436;8.672;2023-07-31T05:27:25;2.20;;;1.40;;
76256;SDS011;65074;50.436;8.672;2023-07-31T05:29:50;5.20;;;1.83;;
76256;SDS011;65074;50.436;8.672;2023-07-31T05:32:15;3.97;;;1.47;;
76256;SDS011;65074;50.436;8.672;2023-07-31T05:34:40;2.38;;;1.45;;
76256;SDS011;65074;50.436;8.672;2023-07-31T05:37:06;3.15;;;1.50;;
76256;SDS011;65074;50.436;8.672;2023-07-31T05:39:31;2.70;;;1.60;;
76256;SDS011;65074;50.436;8.672;2023-07-31T05:41:56;3.50;;;1.80;;
76256;SDS011;65074;50.436;8.672;2023-07-31T05:44:21;2.73;;;1.50;;
76256;SDS011;65074;50.436;8.672;2023-07-31T05:46:47;2.57;;;1.37;;
76256;SDS011;65074;50.436;8.672;2023-07-31T05:49:12;2.95;;;1.65;;
76256;SDS011;65074;50.436;8.672;2023-07-31T05:51:37;3.57;;;1.30;;
76256;SDS011;65074;50.436;8.672;2023-07-31T05:54:03;2.90;;;1.53;;
76256;SDS011;65074;50.436;8.672;2023-07-31T05:56:28;2.93;;;1.47;;
76256;SDS011;65074;50.436;8.672;2023-07-31T05:58:53;2.27;;;1.33;;
76256;SDS011;65074;50.436;8.672;2023-07-31T06:01:18;2.30;;;1.30;;
76256;SDS011;65074;50.436;8.672;2023-07-31T06:03:46;3.63;;;1.30;;
76256;SDS011;65074;50.436;8.672;2023-07-31T06:06:11;4.33;;;1.50;;
76256;SDS011;65074;50.436;8.672;2023-07-31T06:08:36;3.83;;;1.63;;
76256;SDS011;65074;50.436;8.672;2023-07-31T06:11:02;2.50;;;1.63;;
76256;SDS011;65074;50.436;8.672;2023-07-31T06:13:27;3.33;;;1.47;;
76256;SDS011;65074;50.436;8.672;2023-07-31T06:15:52;2.07;;;1.30;;
76256;SDS011;65074;50.436;8.672;2023-07-31T06:18:17;3.23;;;1.40;;
76256;SDS011;65074;50.436;8.672;2023-07-31T06:20:43;3.05;;;1.52;;
76256;SDS011;65074;50.436;8.672;2023-07-31T06:23:08;4.32;;;1.52;;
76256;SDS011;65074;50.436;8.672;2023-07-31T06:25:33;7.50;;;2.13;;
76256;SDS011;65074;50.436;8.672;2023-07-31T06:27:59;3.20;;;1.50;;
76256;SDS011;65074;50.436;8.672;2023-07-31T06:30:24;4.10;;;1.63;;
76256;SDS011;65074;50.436;8.672;2023-07-31T06:32:49;4.43;;;1.60;;
76256;SDS011;65074;50.436;8.672;2023-07-31T06:35:14;5.10;;;1.70;;
76256;SDS011;65074;50.436;8.672;2023-07-31T06:37:40;1.90;;;1.55;;
76256;SDS011;65074;50.436;8.672;2023-07-31T06:40:05;3.90;;;1.70;;
76256;SDS011;65074;50.436;8.672;2023-07-31T06:42:32;4.05;;;1.70;;
76256;SDS011;65074;50.436;8.672;2023-07-31T06:44:58;6.17;;;1.80;;
76256;SDS011;65074;50.436;8.672;2023-07-31T06:47:23;4.13;;;1.60;;
76256;SDS011;65074;50.436;8.672;2023-07-31T06:49:48;3.97;;;1.77;;
76256;SDS011;65074;50.436;8.672;2023-07-31T06:52:13;5.53;;;2.23;;
76256;SDS011;65074;50.436;8.672;2023-07-31T06:54:38;3.60;;;1.70;;
76256;SDS011;65074;50.436;8.672;2023-07-31T06:57:04;4.18;;;1.63;;
76256;SDS011;65074;50.436;8.672;2023-07-31T06:59:29;3.53;;;2.08;;
76256;SDS011;65074;50.436;8.672;2023-07-31T07:01:54;3.70;;;1.60;;
76256;SDS011;65074;50.436;8.672;2023-07-31T07:04:20;4.67;;;1.80;;
76256;SDS011;65074;50.436;8.672;2023-07-31T07:06:45;5.03;;;2.17;;
76256;SDS011;65074;50.436;8.672;2023-07-31T07:09:10;5.60;;;2.07;;
76256;SDS011;65074;50.436;8.672;2023-07-31T07:11:35;3.47;;;1.40;;
76256;SDS011;65074;50.436;8.672;2023-07-31T07:14:02;4.28;;;2.45;;
76256;SDS011;65074;50.436;8.672;2023-07-31T07:16:28;4.63;;;2.50;;
76256;SDS011;65074;50.436;8.672;2023-07-31T07:18:53;5.75;;;2.45;;
76256;SDS011;65074;50.436;8.672;2023-07-31T07:21:18;5.37;;;1.97;;
76256;SDS011;65074;50.436;8.672;2023-07-31T07:23:44;3.90;;;1.90;;
76256;SDS011;65074;50.436;8.672;2023-07-31T07:26:09;6.13;;;2.20;;
76256;SDS011;65074;50.436;8.672;2023-07-31T07:28:34;5.43;;;2.30;;
76256;SDS011;65074;50.436;8.672;2023-07-31T07:30:59;4.90;;;2.07;;
76256;SDS011;65074;50.436;8.672;2023-07-31T07:33:25;4.87;;;2.13;;
76256;SDS011;65074;50.436;8.672;2023-07-31T07:35:50;3.90;;;1.90;;
76256;SDS011;65074;50.436;8.672;2023-07-31T07:38:15;5.23;;;1.90;;
76256;SDS011;65074;50.436;8.672;2023-07-31T07:40:41;3.38;;;1.75;;
76256;SDS011;65074;50.436;8.672;2023-07-31T07:43:06;5.00;;;1.80;;
76256;SDS011;65074;50.436;8.672;2023-07-31T07:45:32;4.32;;;2.08;;
76256;SDS011;65074;50.436;8.672;2023-07-31T07:47:57;6.03;;;2.00;;
76256;SDS011;65074;50.436;8.672;2023-07-31T07:50:24;3.75;;;2.03;;
76256;SDS011;65074;50.436;8.672;2023-07-31T07:52:49;6.13;;;1.88;;
76256;SDS011;65074;50.436;8.672;2023-07-31T07:55:14;3.97;;;1.80;;
76256;SDS011;65074;50.436;8.672;2023-07-31T07:57:39;4.72;;;2.05;;
76256;SDS011;65074;50.436;8.672;2023-07-31T08:00:05;5.88;;;2.17;;
76256;SDS011;65074;50.436;8.672;2023-07-31T08:02:39;4.57;;;1.90;;
76256;SDS011;65074;50.436;8.672;2023-07-31T08:05:04;7.50;;;2.80;;
76256;SDS011;65074;50.436;8.672;2023-07-31T08:07:29;3.72;;;1.77;;
76256;SDS011;65074;50.436;8.672;2023-07-31T08:09:55;6.63;;;1.97;;
76256;SDS011;65074;50.436;8.672;2023-07-31T08:12:20;5.10;;;2.17;;
76256;SDS011;65074;50.436;8.672;2023-07-31T08:14:45;3.63;;;1.60;;
76256;SDS011;65074;50.436;8.672;2023-07-31T08:17:10;5.40;;;1.93;;
76256;SDS011;65074;50.436;8.672;2023-07-31T08:19:36;6.00;;;1.80;;
76256;SDS011;65074;50.436;8.672;2023-07-31T08:22:01;4.13;;;1.73;;
76256;SDS011;65074;50.436;8.672;2023-07-31T08:24:26;5.17;;;1.87;;
76256;SDS011;65074;50.436;8.672;2023-07-31T08:26:51;3.97;;;1.90;;
76256;SDS011;65074;50.436;8.672;2023-07-31T08:29:17;2.73;;;1.47;;
76256;SDS011;65074;50.436;8.672;2023-07-31T08:31:42;4.67;;;1.70;;
76256;SDS011;65074;50.436;8.672;2023-07-31T08:34:07;5.00;;;2.20;;
76256;SDS011;65074;50.436;8.672;2023-07-31T08:36:32;3.83;;;2.10;;
76256;SDS011;65074;50.436;8.672;2023-07-31T08:38:57;4.23;;;2.03;;
76256;SDS011;65074;50.436;8.672;2023-07-31T08:41:23;4.13;;;2.07;;
76256;SDS011;65074;50.436;8.672;2023-07-31T08:43:49;6.30;;;2.40;;
76256;SDS011;65074;50.436;8.672;2023-07-31T08:46:14;4.45;;;1.80;;
76256;SDS011;65074;50.436;8.672;2023-07-31T08:48:43;5.35;;;2.00;;
76256;SDS011;65074;50.436;8.672;2023-07-31T08:51:09;3.92;;;1.92;;
76256;SDS011;65074;50.436;8.672;2023-07-31T08:53:35;5.63;;;2.03;;
76256;SDS011;65074;50.436;8.672;2023-07-31T08:56:00;4.50;;;1.58;;
76256;SDS011;65074;50.436;8.672;2023-07-31T08:58:27;4.85;;;1.98;;
76256;SDS011;65074;50.436;8.672;2023-07-31T09:00:54;4.03;;;1.90;;
76256;SDS011;65074;50.436;8.672;2023-07-31T09:03:21;4.60;;;1.60;;
76256;SDS011;65074;50.436;8.672;2023-07-31T09:05:46;2.90;;;1.60;;
76256;SDS011;65074;50.436;8.672;2023-07-31T09:08:12;3.75;;;1.80;;
76256;SDS011;65074;50.436;8.672;2023-07-31T09:10:41;3.17;;;1.83;;
76256;SDS011;65074;50.436;8.672;2023-07-31T09:15:32;4.37;;;1.60;;
76256;SDS011;65074;50.436;8.672;2023-07-31T09:18:01;4.07;;;1.92;;
76256;SDS011;65074;50.436;8.672;2023-07-31T09:20:26;4.43;;;1.73;;
76256;SDS011;65074;50.436;8.672;2023-07-31T09:22:52;5.55;;;1.85;;
76256;SDS011;65074;50.436;8.672;2023-07-31T09:25:21;5.97;;;2.30;;
76256;SDS011;65074;50.436;8.672;2023-07-31T09:30:12;7.18;;;2.22;;
76256;SDS011;65074;50.436;8.672;2023-07-31T09:32:37;4.53;;;1.90;;
76256;SDS011;65074;50.436;8.672;2023-07-31T09:35:12;3.67;;;1.80;;
76256;SDS011;65074;50.436;8.672;2023-07-31T09:37:38;4.32;;;2.13;;
76256;SDS011;65074;50.436;8.672;2023-07-31T09:40:03;5.60;;;2.43;;
76256;SDS011;65074;50.436;8.672;2023-07-31T09:42:29;5.35;;;2.17;;
76256;SDS011;65074;50.436;8.672;2023-07-31T09:44:58;4.95;;;2.00;;
76256;SDS011;65074;50.436;8.672;2023-07-31T09:47:31;3.90;;;1.92;;
76256;SDS011;65074;50.436;8.672;2023-07-31T09:49:56;5.93;;;2.10;;
76256;SDS011;65074;50.436;8.672;2023-07-31T09:52:22;7.03;;;2.33;;
76256;SDS011;65074;50.436;8.672;2023-07-31T09:54:47;3.97;;;1.90;;
76256;SDS011;65074;50.436;8.672;2023-07-31T09:57:12;3.07;;;1.90;;
76256;SDS011;65074;50.436;8.672;2023-07-31T09:59:38;4.03;;;2.13;;
76256;SDS011;65074;50.436;8.672;2023-07-31T10:02:04;6.03;;;2.28;;
76256;SDS011;65074;50.436;8.672;2023-07-31T10:04:31;3.97;;;2.15;;
76256;SDS011;65074;50.436;8.672;2023-07-31T10:06:57;5.07;;;2.23;;
76256;SDS011;65074;50.436;8.672;2023-07-31T10:09:23;5.65;;;2.20;;
76256;SDS011;65074;50.436;8.672;2023-07-31T10:11:55;7.53;;;3.00;;
76256;SDS011;65074;50.436;8.672;2023-07-31T10:14:24;3.95;;;2.10;;
76256;SDS011;65074;50.436;8.672;2023-07-31T10:16:51;5.05;;;2.50;;
76256;SDS011;65074;50.436;8.672;2023-07-31T10:19:17;5.97;;;2.30;;
76256;SDS011;65074;50.436;8.672;2023-07-31T10:21:43;4.22;;;2.10;;
76256;SDS011;65074;50.436;8.672;2023-07-31T10:24:08;4.53;;;2.17;;
76256;SDS011;65074;50.436;8.672;2023-07-31T10:26:34;5.78;;;2.50;;
76256;SDS011;65074;50.436;8.672;2023-07-31T10:29:00;3.30;;;2.17;;
76256;SDS011;65074;50.436;8.672;2023-07-31T10:31:26;4.38;;;2.45;;
76256;SDS011;65074;50.436;8.672;2023-07-31T10:33:52;7.38;;;2.97;;
76256;SDS011;65074;50.436;8.672;2023-07-31T10:36:18;3.00;;;1.75;;
76256;SDS011;65074;50.436;8.672;2023-07-31T10:38:43;5.22;;;2.20;;
76256;SDS011;65074;50.436;8.672;2023-07-31T10:41:09;5.05;;;2.00;;
76256;SDS011;65074;50.436;8.672;2023-07-31T10:43:36;4.93;;;2.28;;
76256;SDS011;65074;50.436;8.672;2023-07-31T10:46:06;5.43;;;2.45;;
76256;SDS011;65074;50.436;8.672;2023-07-31T10:48:32;3.70;;;2.28;;
76256;SDS011;65074;50.436;8.672;2023-07-31T10:50:58;4.18;;;2.47;;
76256;SDS011;65074;50.436;8.672;2023-07-31T10:53:30;4.07;;;1.90;;
76256;SDS011;65074;50.436;8.672;2023-07-31T10:55:59;5.70;;;2.70;;
76256;SDS011;65074;50.436;8.672;2023-07-31T10:58:24;7.28;;;2.20;;
76256;SDS011;65074;50.436;8.672;2023-07-31T11:00:51;4.78;;;2.17;;
76256;SDS011;65074;50.436;8.672;2023-07-31T11:03:20;4.10;;;2.13;;
76256;SDS011;65074;50.436;8.672;2023-07-31T11:05:49;7.40;;;2.45;;
76256;SDS011;65074;50.436;8.672;2023-07-31T11:10:44;4.85;;;2.33;;
76256;SDS011;65074;50.436;8.672;2023-07-31T11:13:10;6.70;;;2.75;;
76256;SDS011;65074;50.436;8.672;2023-07-31T11:15:35;2.90;;;1.77;;
76256;SDS011;65074;50.436;8.672;2023-07-31T11:18:00;9.27;;;2.87;;
76256;SDS011;65074;50.436;8.672;2023-07-31T11:20:29;4.00;;;2.40;;
76256;SDS011;65074;50.436;8.672;2023-07-31T11:22:54;5.35;;;1.92;;
76256;SDS011;65074;50.436;8.672;2023-07-31T11:25:20;5.53;;;2.30;;
76256;SDS011;65074;50.436;8.672;2023-07-31T11:27:47;5.18;;;2.40;;
76256;SDS011;65074;50.436;8.672;2023-07-31T11:30:18;4.13;;;2.17;;
76256;SDS011;65074;50.436;8.672;2023-07-31T11:32:43;6.07;;;2.28;;
76256;SDS011;65074;50.436;8.672;2023-07-31T11:35:12;3.87;;;2.10;;
76256;SDS011;65074;50.436;8.672;2023-07-31T11:37:38;2.85;;;1.80;;
76256;SDS011;65074;50.436;8.672;2023-07-31T11:40:03;4.50;;;2.15;;
76256;SDS011;65074;50.436;8.672;2023-07-31T11:42:30;3.97;;;1.90;;
76256;SDS011;65074;50.436;8.672;2023-07-31T11:44:55;3.40;;;2.03;;
76256;SDS011;65074;50.436;8.672;2023-07-31T11:47:20;3.45;;;1.75;;
76256;SDS011;65074;50.436;8.672;2023-07-31T11:49:46;3.95;;;1.90;;
76256;SDS011;65074;50.436;8.672;2023-07-31T11:52:11;3.13;;;1.60;;
76256;SDS011;65074;50.436;8.672;2023-07-31T11:54:37;2.97;;;1.92;;
76256;SDS011;65074;50.436;8.672;2023-07-31T11:57:03;4.72;;;2.10;;
76256;SDS011;65074;50.436;8.672;2023-07-31T11:59:28;5.40;;;1.92;;
76256;SDS011;65074;50.436;8.672;2023-07-31T12:01:54;3.58;;;1.80;;
76256;SDS011;65074;50.436;8.672;2023-07-31T12:04:19;4.90;;;2.10;;
76256;SDS011;65074;50.436;8.672;2023-07-31T12:06:47;3.28;;;2.25;;
76256;SDS011;65074;50.436;8.672;2023-07-31T12:09:14;3.40;;;1.73;;
76256;SDS011;65074;50.436;8.672;2023-07-31T12:11:46;3.08;;;1.90;;
76256;SDS011;65074;50.436;8.672;2023-07-31T12:14:24;4.85;;;2.20;;
76256;SDS011;65074;50.436;8.672;2023-07-31T12:17:00;4.80;;;2.08;;
76256;SDS011;65074;50.436;8.672;2023-07-31T12:19:25;3.03;;;1.80;;
76256;SDS011;65074;50.436;8.672;2023-07-31T12:21:55;5.03;;;1.90;;
76256;SDS011;65074;50.436;8.672;2023-07-31T12:24:20;4.72;;;2.22;;
76256;SDS011;65074;50.436;8.672;2023-07-31T12:26:46;3.53;;;1.90;;
76256;SDS011;65074;50.436;8.672;2023-07-31T12:29:13;3.20;;;1.60;;
76256;SDS011;65074;50.436;8.672;2023-07-31T12:31:40;4.13;;;2.10;;
76256;SDS011;65074;50.436;8.672;2023-07-31T12:34:14;2.65;;;1.70;;
76256;SDS011;65074;50.436;8.672;2023-07-31T12:36:39;3.60;;;1.67;;
76256;SDS011;65074;50.436;8.672;2023-07-31T12:39:04;4.80;;;1.70;;
76256;SDS011;65074;50.436;8.672;2023-07-31T12:41:30;4.33;;;2.10;;
76256;SDS011;65074;50.436;8.672;2023-07-31T12:43:55;4.78;;;1.88;;
76256;SDS011;65074;50.436;8.672;2023-07-31T12:46:20;6.17;;;2.20;;
76256;SDS011;65074;50.436;8.672;2023-07-31T12:48:45;3.40;;;1.87;;
76256;SDS011;65074;50.436;8.672;2023-07-31T12:51:11;6.43;;;1.90;;
76256;SDS011;65074;50.436;8.672;2023-07-31T12:53:36;2.77;;;1.87;;
76256;SDS011;65074;50.436;8.672;2023-07-31T12:56:01;4.55;;;1.95;;
76256;SDS011;65074;50.436;8.672;2023-07-31T12:58:27;3.78;;;2.00;;
76256;SDS011;65074;50.436;8.672;2023-07-31T13:00:52;4.63;;;1.90;;
76256;SDS011;65074;50.436;8.672;2023-07-31T13:03:17;5.87;;;2.03;;
76256;SDS011;65074;50.436;8.672;2023-07-31T13:05:43;3.30;;;1.70;;
76256;SDS011;65074;50.436;8.672;2023-07-31T13:08:08;3.47;;;1.93;;
76256;SDS011;65074;50.436;8.672;2023-07-31T13:10:33;2.70;;;1.50;;
76256;SDS011;65074;50.436;8.672;2023-07-31T13:12:58;4.63;;;2.20;;
76256;SDS011;65074;50.436;8.672;2023-07-31T13:15:24;5.27;;;1.80;;
76256;SDS011;65074;50.436;8.672;2023-07-31T13:17:49;2.35;;;1.70;;
76256;SDS011;65074;50.436;8.672;2023-07-31T13:20:14;3.03;;;1.80;;
76256;SDS011;65074;50.436;8.672;2023-07-31T13:22:40;2.17;;;1.40;;
76256;SDS011;65074;50.436;8.672;2023-07-31T13:25:05;3.53;;;1.90;;
76256;SDS011;65074;50.436;8.672;2023-07-31T13:27:31;4.15;;;1.92;;
76256;SDS011;65074;50.436;8.672;2023-07-31T13:29:56;2.40;;;1.38;;
76256;SDS011;65074;50.436;8.672;2023-07-31T13:32:21;3.33;;;1.77;;
76256;SDS011;65074;50.436;8.672;2023-07-31T13:34:47;2.67;;;1.40;;
76256;SDS011;65074;50.436;8.672;2023-07-31T13:37:12;2.60;;;1.42;;
76256;SDS011;65074;50.436;8.672;2023-07-31T13:39:38;2.65;;;1.70;;
76256;SDS011;65074;50.436;8.672;2023-07-31T13:42:03;4.03;;;1.83;;
76256;SDS011;65074;50.436;8.672;2023-07-31T13:44:31;4.82;;;2.08;;
76256;SDS011;65074;50.436;8.672;2023-07-31T13:46:57;3.03;;;1.80;;
76256;SDS011;65074;50.436;8.672;2023-07-31T13:49:22;1.80;;;1.57;;
76256;SDS011;65074;50.436;8.672;2023-07-31T13:51:47;2.97;;;1.70;;
76256;SDS011;65074;50.436;8.672;2023-07-31T13:54:13;3.63;;;1.90;;
76256;SDS011;65074;50.436;8.672;2023-07-31T13:56:40;3.78;;;1.95;;
76256;SDS011;65074;50.436;8.672;2023-07-31T13:59:05;3.47;;;1.70;;
76256;SDS011;65074;50.436;8.672;2023-07-31T14:01:31;4.28;;;1.90;;
76256;SDS011;65074;50.436;8.672;2023-07-31T14:03:56;3.37;;;1.73;;
76256;SDS011;65074;50.436;8.672;2023-07-31T14:06:21;2.23;;;1.60;;
76256;SDS011;65074;50.436;8.672;2023-07-31T14:08:46;2.97;;;1.60;;
76256;SDS011;65074;50.436;8.672;2023-07-31T14:11:12;3.03;;;1.57;;
76256;SDS011;65074;50.436;8.672;2023-07-31T14:13:37;5.00;;;1.97;;
76256;SDS011;65074;50.436;8.672;2023-07-31T14:16:02;6.00;;;2.17;;
76256;SDS011;65074;50.436;8.672;2023-07-31T14:18:27;3.28;;;1.80;;
76256;SDS011;65074;50.436;8.672;2023-07-31T14:20:53;3.88;;;2.45;;
76256;SDS011;65074;50.436;8.672;2023-07-31T14:23:18;4.13;;;2.10;;
76256;SDS011;65074;50.436;8.672;2023-07-31T14:25:45;4.72;;;2.35;;
76256;SDS011;65074;50.436;8.672;2023-07-31T14:28:10;3.70;;;1.90;;
76256;SDS011;65074;50.436;8.672;2023-07-31T14:30:35;3.77;;;1.90;;
76256;SDS011;65074;50.436;8.672;2023-07-31T14:33:00;2.83;;;1.67;;
76256;SDS011;65074;50.436;8.672;2023-07-31T14:35:27;5.30;;;1.90;;
76256;SDS011;65074;50.436;8.672;2023-07-31T14:37:52;3.27;;;1.60;;
76256;SDS011;65074;50.436;8.672;2023-07-31T14:40:17;2.20;;;1.50;;
76256;SDS011;65074;50.436;8.672;2023-07-31T14:42:43;3.60;;;1.63;;
76256;SDS011;65074;50.436;8.672;2023-07-31T14:45:08;3.73;;;1.83;;
76256;SDS011;65074;50.436;8.672;2023-07-31T14:47:35;3.90;;;1.65;;
76256;SDS011;65074;50.436;8.672;2023-07-31T14:50:00;2.58;;;1.65;;